createdAt,value
2023-05-15T00:02:16.552Z,8.90
2023-05-15T00:04:43.275Z,10.38
2023-05-15T00:07:10.314Z,12.02
2023-05-15T00:12:05.316Z,10.02
2023-05-15T00:14:32.347Z,10.52
2023-05-15T00:17:00.158Z,10.75
2023-05-15T00:19:26.658Z,9.70
2023-05-15T00:21:53.462Z,9.88
2023-05-15T00:24:21.922Z,9.63
2023-05-15T00:26:48.897Z,8.85
2023-05-15T00:29:15.983Z,10.55
2023-05-15T00:31:42.899Z,10.73
2023-05-15T00:34:09.733Z,11.05
2023-05-15T00:36:37.432Z,9.95
2023-05-15T00:39:04.347Z,10.98
2023-05-15T00:41:31.276Z,11.18
2023-05-15T00:43:58.385Z,10.13
2023-05-15T00:46:27.316Z,12.50
2023-05-15T00:48:55.130Z,12.73
2023-05-15T00:51:21.949Z,11.55
2023-05-15T00:53:50.459Z,11.73
2023-05-15T00:56:17.898Z,11.70
2023-05-15T00:58:46.679Z,10.10
2023-05-15T01:01:16.474Z,11.60
2023-05-15T01:03:46.963Z,11.35
2023-05-15T01:06:13.971Z,11.52
2023-05-15T01:08:46.096Z,11.00
2023-05-15T01:11:14.958Z,10.93
2023-05-15T01:13:41.801Z,12.55
2023-05-15T01:16:09.433Z,10.90
2023-05-15T01:18:37.537Z,10.73
2023-05-15T01:21:10.359Z,11.02
2023-05-15T01:23:55.282Z,10.85
2023-05-15T01:26:59.761Z,9.57
2023-05-15T01:29:46.171Z,9.98
2023-05-15T01:32:28.901Z,10.18
2023-05-15T01:35:04.530Z,9.70
2023-05-15T01:37:35.009Z,9.95
2023-05-15T01:40:07.638Z,10.80
2023-05-15T01:42:37.227Z,9.18
2023-05-15T01:45:05.239Z,11.43
2023-05-15T01:47:44.896Z,11.85
2023-05-15T01:50:15.385Z,10.77
2023-05-15T01:52:48.072Z,12.05
2023-05-15T01:55:15.385Z,13.40
2023-05-15T01:57:43.219Z,11.00
2023-05-15T02:00:11.825Z,14.35
2023-05-15T02:02:38.972Z,12.10
2023-05-15T02:05:06.676Z,10.93
2023-05-15T02:07:34.364Z,11.20
2023-05-15T02:10:02.718Z,11.93
2023-05-15T02:12:30.719Z,11.32
2023-05-15T02:14:58.549Z,10.90
2023-05-15T02:17:26.641Z,11.15
2023-05-15T02:19:53.105Z,9.48
2023-05-15T02:22:20.000Z,11.02
2023-05-15T02:24:47.392Z,12.60
2023-05-15T02:27:22.740Z,12.27
2023-05-15T02:30:13.558Z,11.30
2023-05-15T02:32:49.812Z,11.93
2023-05-15T02:35:32.077Z,10.75
2023-05-15T02:38:02.874Z,12.07
2023-05-15T02:40:32.041Z,11.30
2023-05-15T02:43:00.331Z,13.07
2023-05-15T02:45:27.415Z,10.68
2023-05-15T02:47:54.679Z,12.35
2023-05-15T02:50:21.847Z,13.35
2023-05-15T02:55:15.051Z,11.52
2023-05-15T02:57:41.569Z,11.15
2023-05-15T03:00:08.810Z,12.43
2023-05-15T03:05:01.918Z,12.82
2023-05-15T03:07:29.628Z,12.57
2023-05-15T03:09:56.187Z,11.30
2023-05-15T03:12:22.698Z,13.35
2023-05-15T03:14:49.233Z,13.63
2023-05-15T03:17:16.121Z,13.48
2023-05-15T03:19:43.017Z,11.82
2023-05-15T03:22:09.771Z,13.43
2023-05-15T03:24:36.326Z,14.60
2023-05-15T03:27:03.125Z,11.32
2023-05-15T03:29:29.870Z,13.80
2023-05-15T03:31:56.740Z,12.20
2023-05-15T03:34:23.180Z,11.40
2023-05-15T03:36:50.083Z,12.68
2023-05-15T03:39:16.800Z,13.98
2023-05-15T03:41:43.388Z,12.05
2023-05-15T03:44:10.194Z,12.98
2023-05-15T03:46:36.821Z,12.32
2023-05-15T03:49:03.490Z,15.20
2023-05-15T03:51:30.112Z,13.60
2023-05-15T03:53:57.212Z,15.65
2023-05-15T03:56:24.235Z,15.52
2023-05-15T03:58:51.158Z,16.50
2023-05-15T04:01:17.949Z,13.32
2023-05-15T04:03:44.535Z,14.00
2023-05-15T04:06:11.300Z,15.93
2023-05-15T04:08:39.626Z,16.30
2023-05-15T04:11:07.622Z,15.60
2023-05-15T04:16:00.957Z,12.82
2023-05-15T04:18:27.485Z,14.38
2023-05-15T04:20:54.075Z,16.02
2023-05-15T04:23:20.947Z,14.02
2023-05-15T04:25:47.847Z,15.18
2023-05-15T04:28:15.371Z,14.18
2023-05-15T04:30:41.989Z,15.10
2023-05-15T04:33:08.729Z,14.07
2023-05-15T04:35:35.543Z,14.63
2023-05-15T04:38:03.088Z,16.60
2023-05-15T04:40:29.932Z,17.63
2023-05-15T04:42:58.142Z,16.58
2023-05-15T04:45:24.992Z,16.33
2023-05-15T04:47:51.736Z,12.95
2023-05-15T04:50:18.659Z,14.43
2023-05-15T04:52:45.306Z,16.05
2023-05-15T04:55:11.883Z,13.93
2023-05-15T04:57:38.395Z,16.02
2023-05-15T05:00:06.006Z,14.40
2023-05-15T05:02:32.414Z,14.25
2023-05-15T05:04:59.533Z,12.98
2023-05-15T05:09:54.186Z,14.35
2023-05-15T05:12:20.726Z,12.45
2023-05-15T05:14:47.176Z,13.38
2023-05-15T05:17:13.990Z,12.75
2023-05-15T05:19:42.184Z,14.02
2023-05-15T05:22:09.114Z,11.48
2023-05-15T05:24:35.828Z,12.10
2023-05-15T05:27:02.348Z,14.52
2023-05-15T05:29:30.359Z,10.73
2023-05-15T05:31:57.526Z,12.40
2023-05-15T05:34:24.629Z,10.52
2023-05-15T05:39:19.117Z,10.65
2023-05-15T05:41:45.914Z,11.23
2023-05-15T05:44:13.459Z,10.95
2023-05-15T05:46:40.075Z,11.27
2023-05-15T05:49:06.625Z,13.25
2023-05-15T05:51:36.375Z,11.15
2023-05-15T05:54:02.984Z,11.73
2023-05-15T05:56:29.978Z,13.10
2023-05-15T05:58:56.577Z,11.63
2023-05-15T06:01:26.394Z,12.38
2023-05-15T06:03:53.162Z,10.93
2023-05-15T06:06:19.750Z,16.00
2023-05-15T06:08:46.227Z,10.75
2023-05-15T06:11:13.827Z,11.65
2023-05-15T06:13:40.367Z,13.52
2023-05-15T06:16:08.965Z,11.57
2023-05-15T06:18:35.543Z,13.68
2023-05-15T06:21:02.187Z,13.00
2023-05-15T06:23:28.753Z,12.43
2023-05-15T06:25:55.260Z,13.30
2023-05-15T06:28:22.009Z,11.93
2023-05-15T06:30:48.830Z,10.48
2023-05-15T06:33:16.164Z,14.18
2023-05-15T06:35:42.745Z,12.32
2023-05-15T06:38:09.179Z,13.68
2023-05-15T06:40:35.985Z,13.75
2023-05-15T06:43:02.742Z,12.40
2023-05-15T06:45:29.767Z,13.35
2023-05-15T06:50:24.724Z,11.10
2023-05-15T06:52:51.655Z,13.00
2023-05-15T06:55:18.451Z,10.15
2023-05-15T06:57:44.967Z,12.18
2023-05-15T07:00:13.847Z,11.98
2023-05-15T07:02:40.607Z,13.55
2023-05-15T07:05:07.592Z,10.23
2023-05-15T07:10:01.394Z,10.25
2023-05-15T07:12:27.887Z,11.80
2023-05-15T07:14:54.649Z,11.98
2023-05-15T07:17:21.219Z,9.63
2023-05-15T07:19:47.743Z,11.80
2023-05-15T07:22:14.489Z,8.52
2023-05-15T07:24:41.372Z,9.35
2023-05-15T07:27:07.981Z,9.95
2023-05-15T07:29:34.803Z,11.65
2023-05-15T07:32:01.697Z,9.68
2023-05-15T07:36:54.855Z,9.38
2023-05-15T07:39:21.442Z,11.50
2023-05-15T07:41:48.286Z,11.43
2023-05-15T07:44:15.521Z,11.45
2023-05-15T07:46:42.176Z,11.25
2023-05-15T07:49:08.787Z,11.43
2023-05-15T07:51:35.615Z,10.95
2023-05-15T07:54:04.817Z,10.60
2023-05-15T07:56:32.196Z,13.48
2023-05-15T07:58:58.719Z,12.65
2023-05-15T08:01:25.632Z,9.18
2023-05-15T08:03:52.260Z,8.63
2023-05-15T08:06:19.175Z,10.55
2023-05-15T08:08:45.883Z,11.43
2023-05-15T08:11:12.492Z,10.65
2023-05-15T08:13:39.509Z,10.68
2023-05-15T08:18:33.862Z,8.77
2023-05-15T08:21:02.007Z,9.55
2023-05-15T08:23:29.665Z,8.20
2023-05-15T08:25:56.238Z,8.93
2023-05-15T08:28:22.885Z,12.05
2023-05-15T08:30:49.674Z,8.63
2023-05-15T08:33:16.510Z,8.48
2023-05-15T08:35:43.092Z,9.10
2023-05-15T08:38:09.627Z,9.95
2023-05-15T08:40:39.482Z,8.85
2023-05-15T08:43:13.206Z,8.52
2023-05-15T08:45:41.203Z,9.48
2023-05-15T08:48:11.572Z,9.32
2023-05-15T08:50:40.334Z,9.73
2023-05-15T08:53:08.489Z,9.18
2023-05-15T08:55:35.620Z,8.43
2023-05-15T08:58:02.753Z,7.45
2023-05-15T09:00:30.857Z,9.40
2023-05-15T09:03:00.258Z,11.23
2023-05-15T09:05:30.639Z,8.32
2023-05-15T09:07:59.605Z,13.07
2023-05-15T09:10:27.230Z,9.88
2023-05-15T09:12:56.736Z,12.23
2023-05-15T09:15:25.411Z,9.93
2023-05-15T09:17:55.066Z,8.13
2023-05-15T09:20:31.636Z,9.45
2023-05-15T09:23:00.444Z,11.95
2023-05-15T09:25:36.863Z,13.02
2023-05-15T09:28:29.928Z,10.88
2023-05-15T09:30:59.545Z,8.93
2023-05-15T09:33:31.106Z,9.40
2023-05-15T09:35:57.961Z,16.30
2023-05-15T09:38:24.732Z,9.20
2023-05-15T09:41:00.936Z,8.30
2023-05-15T09:43:29.572Z,8.65
2023-05-15T09:45:56.488Z,10.68
2023-05-15T09:48:23.412Z,9.82
2023-05-15T09:53:21.419Z,11.27
2023-05-15T09:55:49.251Z,12.32
2023-05-15T09:58:18.018Z,10.48
2023-05-15T10:00:48.694Z,12.48
2023-05-15T10:03:18.661Z,12.05
2023-05-15T10:05:45.839Z,16.70
2023-05-15T10:08:12.780Z,11.23
2023-05-15T10:10:40.868Z,12.88
2023-05-15T10:13:08.582Z,11.85
2023-05-15T10:15:35.418Z,10.30
2023-05-15T10:18:04.723Z,8.80
2023-05-15T10:20:33.358Z,12.05
2023-05-15T10:23:04.086Z,13.63
2023-05-15T10:25:42.724Z,15.07
2023-05-15T10:28:10.665Z,9.80
2023-05-15T10:30:38.694Z,8.50
2023-05-15T10:33:07.149Z,10.23
2023-05-15T10:35:40.089Z,8.32
2023-05-15T10:40:37.277Z,8.10
2023-05-15T10:43:05.123Z,6.18
2023-05-15T10:45:32.720Z,9.25
2023-05-15T10:48:00.306Z,6.93
2023-05-15T10:50:27.641Z,9.05
2023-05-15T10:52:55.368Z,6.43
2023-05-15T10:55:23.034Z,11.00
2023-05-15T10:57:50.137Z,9.23
2023-05-15T11:00:22.834Z,6.30
2023-05-15T11:02:51.052Z,8.00
2023-05-15T11:05:17.786Z,7.18
2023-05-15T11:07:44.260Z,10.73
2023-05-15T11:10:40.263Z,7.97
2023-05-15T11:13:06.892Z,7.32
2023-05-15T11:15:44.617Z,7.20
2023-05-15T11:18:13.996Z,7.20
2023-05-15T11:20:43.729Z,6.55
2023-05-15T11:23:11.510Z,6.88
2023-05-15T11:25:38.688Z,7.55
2023-05-15T11:30:40.992Z,5.38
2023-05-15T11:33:11.040Z,5.15
2023-05-15T11:35:39.492Z,5.22
2023-05-15T11:38:36.830Z,4.78
2023-05-15T11:41:03.670Z,5.00
2023-05-15T11:43:35.618Z,4.70
2023-05-15T11:46:10.775Z,8.32
2023-05-15T11:48:42.670Z,4.75
2023-05-15T11:51:21.483Z,6.00
2023-05-15T11:53:53.414Z,4.13
2023-05-15T11:56:22.931Z,4.25
2023-05-15T11:58:56.876Z,4.85
2023-05-15T12:01:23.716Z,4.38
2023-05-15T12:06:18.294Z,3.40
2023-05-15T12:08:50.297Z,3.38
2023-05-15T12:11:16.857Z,3.70
2023-05-15T12:13:43.671Z,3.22
2023-05-15T12:16:10.213Z,3.58
2023-05-15T12:18:37.069Z,6.72
2023-05-15T12:21:03.970Z,3.55
2023-05-15T12:23:32.105Z,3.80
2023-05-15T12:26:02.683Z,4.13
2023-05-15T12:28:30.653Z,3.45
2023-05-15T12:30:58.578Z,4.38
2023-05-15T12:33:25.362Z,3.72
2023-05-15T12:38:27.005Z,3.40
2023-05-15T12:43:23.544Z,3.45
2023-05-15T12:45:53.045Z,4.45
2023-05-15T12:48:20.815Z,3.92
2023-05-15T12:50:47.646Z,4.45
2023-05-15T12:55:44.792Z,3.40
2023-05-15T12:58:13.088Z,5.15
2023-05-15T13:00:42.433Z,5.32
2023-05-15T13:03:12.064Z,4.15
2023-05-15T13:05:41.954Z,4.07
2023-05-15T13:08:08.551Z,5.07
2023-05-15T13:10:37.645Z,4.25
2023-05-15T13:13:04.466Z,6.05
2023-05-15T13:15:30.951Z,4.15
2023-05-15T13:18:05.211Z,3.20
2023-05-15T13:20:36.021Z,4.85
2023-05-15T13:23:03.162Z,5.47
2023-05-15T13:25:32.171Z,3.95
2023-05-15T13:28:01.432Z,4.93
2023-05-15T13:30:28.665Z,5.93
2023-05-15T13:32:56.117Z,7.65
2023-05-15T13:35:23.000Z,4.05
2023-05-15T13:37:49.801Z,3.20
2023-05-15T13:40:16.759Z,4.18
2023-05-15T13:45:13.502Z,4.63
2023-05-15T13:47:40.969Z,3.58
2023-05-15T13:50:15.684Z,4.03
2023-05-15T13:52:44.206Z,4.13
2023-05-15T13:55:11.365Z,3.95
2023-05-15T13:57:42.490Z,4.25
2023-05-15T14:00:11.696Z,4.57
2023-05-15T14:02:38.902Z,4.70
2023-05-15T14:05:05.810Z,4.45
2023-05-15T14:09:59.202Z,4.50
2023-05-15T14:12:25.692Z,5.05
2023-05-15T14:14:52.306Z,4.80
2023-05-15T14:17:19.772Z,5.88
2023-05-15T14:19:48.077Z,5.78
2023-05-15T14:22:15.045Z,5.60
2023-05-15T14:24:42.533Z,6.50
2023-05-15T14:27:09.520Z,6.63
2023-05-15T14:32:02.908Z,6.35
2023-05-15T14:34:30.999Z,5.03
2023-05-15T14:36:57.957Z,7.97
2023-05-15T14:39:25.476Z,5.18
2023-05-15T14:41:51.961Z,7.28
2023-05-15T14:44:18.564Z,6.82
2023-05-15T14:46:44.988Z,7.82
2023-05-15T14:49:11.739Z,5.53
2023-05-15T14:51:38.537Z,5.45
2023-05-15T14:54:05.252Z,5.85
2023-05-15T14:56:32.171Z,7.97
2023-05-15T14:59:00.139Z,6.22
2023-05-15T15:01:27.219Z,7.68
2023-05-15T15:03:53.802Z,5.30
2023-05-15T15:06:20.452Z,5.25
2023-05-15T15:08:46.952Z,4.78
2023-05-15T15:11:13.775Z,5.28
2023-05-15T15:13:40.261Z,4.35
2023-05-15T15:16:07.538Z,4.03
2023-05-15T15:18:34.337Z,7.10
2023-05-15T15:21:00.939Z,5.05
2023-05-15T15:23:27.640Z,4.72
2023-05-15T15:25:54.122Z,4.60
2023-05-15T15:28:20.650Z,4.72
2023-05-15T15:30:47.214Z,6.18
2023-05-15T15:33:14.225Z,4.25
2023-05-15T15:38:11.454Z,5.35
2023-05-15T15:40:37.963Z,7.15
2023-05-15T15:43:04.675Z,5.10
2023-05-15T15:45:31.238Z,6.88
2023-05-15T15:47:57.793Z,5.93
2023-05-15T15:50:26.048Z,5.53
2023-05-15T15:52:52.768Z,6.18
2023-05-15T15:55:19.269Z,5.15
2023-05-15T15:57:45.709Z,5.32
2023-05-15T16:00:12.769Z,5.55
2023-05-15T16:02:40.828Z,6.22
2023-05-15T16:05:07.610Z,6.50
2023-05-15T16:07:34.350Z,5.57
2023-05-15T16:10:11.788Z,5.28
2023-05-15T16:12:40.243Z,6.10
2023-05-15T16:15:20.790Z,6.43
2023-05-15T16:17:51.006Z,6.03
2023-05-15T16:20:17.877Z,7.95
2023-05-15T16:22:44.777Z,6.65
2023-05-15T16:27:37.625Z,6.65
2023-05-15T16:30:04.399Z,11.20
2023-05-15T16:32:31.134Z,7.72
2023-05-15T16:34:57.952Z,7.93
2023-05-15T16:37:24.700Z,6.68
2023-05-15T16:39:51.226Z,8.90
2023-05-15T16:42:18.369Z,7.70
2023-05-15T16:44:45.228Z,9.15
2023-05-15T16:49:38.507Z,7.50
2023-05-15T16:54:31.759Z,9.10
2023-05-15T16:56:58.223Z,9.63
2023-05-15T16:59:24.945Z,7.65
2023-05-15T17:01:51.740Z,8.75
2023-05-15T17:04:18.424Z,8.88
2023-05-15T17:06:45.221Z,6.57
2023-05-15T17:09:13.197Z,11.30
2023-05-15T17:11:39.626Z,6.55
2023-05-15T17:14:06.374Z,7.28
2023-05-15T17:16:32.870Z,8.80
2023-05-15T17:19:02.165Z,8.13
2023-05-15T17:21:28.727Z,6.68
2023-05-15T17:23:55.466Z,7.18
2023-05-15T17:26:21.878Z,8.05
2023-05-15T17:28:48.693Z,9.32
2023-05-15T17:31:15.418Z,9.32
2023-05-15T17:33:42.154Z,7.68
2023-05-15T17:36:08.858Z,7.72
2023-05-15T17:38:36.683Z,8.25
2023-05-15T17:41:03.455Z,8.65
2023-05-15T17:43:30.399Z,8.98
2023-05-15T17:48:23.451Z,8.40
2023-05-15T17:50:50.284Z,8.40
2023-05-15T17:55:43.684Z,9.52
2023-05-15T17:58:10.498Z,9.32
2023-05-15T18:00:37.054Z,9.20
2023-05-15T18:03:03.971Z,9.55
2023-05-15T18:05:30.681Z,9.13
2023-05-15T18:07:57.113Z,12.05
2023-05-15T18:10:24.727Z,20.98
2023-05-15T18:12:51.211Z,15.48
2023-05-15T18:15:17.717Z,12.68
2023-05-15T18:17:44.676Z,13.02
2023-05-15T18:20:12.115Z,13.53
2023-05-15T18:22:38.561Z,13.98
2023-05-15T18:25:06.670Z,12.68
2023-05-15T18:27:33.302Z,10.75
2023-05-15T18:30:02.069Z,10.48
2023-05-15T18:32:28.630Z,9.82
2023-05-15T18:34:55.249Z,9.88
2023-05-15T18:37:21.700Z,10.73
2023-05-15T18:39:48.349Z,11.13
2023-05-15T18:42:15.718Z,9.73
2023-05-15T18:44:42.907Z,11.20
2023-05-15T18:47:09.805Z,12.18
2023-05-15T18:49:36.668Z,8.93
2023-05-15T18:52:03.348Z,8.18
2023-05-15T18:54:31.117Z,7.03
2023-05-15T18:56:57.787Z,7.38
2023-05-15T18:59:24.301Z,7.28
2023-05-15T19:01:50.902Z,8.55
2023-05-15T19:04:17.659Z,11.27
2023-05-15T19:06:47.125Z,13.68
2023-05-15T19:09:13.747Z,10.35
2023-05-15T19:11:40.467Z,8.02
2023-05-15T19:14:07.178Z,8.73
2023-05-15T19:16:33.979Z,9.40
2023-05-15T19:19:00.854Z,7.53
2023-05-15T19:21:27.466Z,9.07
2023-05-15T19:23:54.254Z,6.63
2023-05-15T19:26:22.269Z,7.72
2023-05-15T19:28:48.977Z,8.10
2023-05-15T19:31:30.139Z,8.25
2023-05-15T19:33:57.039Z,8.27
2023-05-15T19:36:23.848Z,5.95
2023-05-15T19:38:51.731Z,7.57
2023-05-15T19:41:18.281Z,7.63
2023-05-15T19:43:44.830Z,6.78
2023-05-15T19:46:11.435Z,7.82
2023-05-15T19:48:37.941Z,7.05
2023-05-15T19:51:05.537Z,7.60
2023-05-15T19:53:32.172Z,7.93
2023-05-15T19:55:58.587Z,6.75
2023-05-15T19:58:25.387Z,6.93
2023-05-15T20:00:52.002Z,5.82
2023-05-15T20:03:19.150Z,7.30
2023-05-15T20:05:46.121Z,7.57
2023-05-15T20:08:12.959Z,7.18
2023-05-15T20:10:40.151Z,6.63
2023-05-15T20:13:07.369Z,7.32
2023-05-15T20:15:34.065Z,6.82
2023-05-15T20:18:01.229Z,6.32
2023-05-15T20:20:29.302Z,6.45
2023-05-15T20:22:56.201Z,5.35
2023-05-15T20:25:24.223Z,7.10
2023-05-15T20:27:51.135Z,8.10
2023-05-15T20:30:17.739Z,7.88
2023-05-15T20:32:47.425Z,10.05
2023-05-15T20:35:14.056Z,7.20
2023-05-15T20:37:42.187Z,8.70
2023-05-15T20:40:12.948Z,7.18
2023-05-15T20:42:39.955Z,6.78
2023-05-15T20:45:08.889Z,6.45
2023-05-15T20:47:36.769Z,6.45
2023-05-15T20:50:04.272Z,6.70
2023-05-15T20:52:30.766Z,8.57
2023-05-15T20:54:58.541Z,7.00
2023-05-15T20:57:27.113Z,7.22
2023-05-15T20:59:53.802Z,7.15
2023-05-15T21:02:20.209Z,7.07
2023-05-15T21:04:46.782Z,7.30
2023-05-15T21:07:13.603Z,6.47
2023-05-15T21:09:40.355Z,6.13
2023-05-15T21:12:07.290Z,6.60
2023-05-15T21:14:34.041Z,5.82
2023-05-15T21:17:01.030Z,6.47
2023-05-15T21:21:54.854Z,6.28
2023-05-15T21:24:21.768Z,5.82
2023-05-15T21:26:48.908Z,9.07
2023-05-15T21:29:15.690Z,7.90
2023-05-15T21:31:42.616Z,6.55
2023-05-15T21:34:09.447Z,6.97
2023-05-15T21:36:36.385Z,5.75
2023-05-15T21:39:03.433Z,5.85
2023-05-15T21:43:58.858Z,6.78
2023-05-15T21:46:25.452Z,6.15
2023-05-15T21:48:52.285Z,5.82
2023-05-15T21:51:20.203Z,7.53
2023-05-15T21:53:47.121Z,8.25
2023-05-15T21:56:14.612Z,7.32
2023-05-15T21:58:41.057Z,8.40
2023-05-15T22:01:07.548Z,6.05
2023-05-15T22:03:34.395Z,8.10
2023-05-15T22:06:00.983Z,7.28
2023-05-15T22:08:27.400Z,7.85
2023-05-15T22:10:54.040Z,10.25
2023-05-15T22:13:20.979Z,8.60
2023-05-15T22:15:47.735Z,8.50
2023-05-15T22:18:14.465Z,8.07
2023-05-15T22:20:41.158Z,6.43
2023-05-15T22:23:07.711Z,8.65
2023-05-15T22:25:34.376Z,10.48
2023-05-15T22:28:01.197Z,9.38
2023-05-15T22:30:28.148Z,9.85
2023-05-15T22:32:56.435Z,10.65
2023-05-15T22:35:23.194Z,13.90
2023-05-15T22:37:50.001Z,20.42
2023-05-15T22:40:17.173Z,13.38
2023-05-15T22:42:44.430Z,17.50
2023-05-15T22:45:12.570Z,16.10
2023-05-15T22:47:39.377Z,17.75
2023-05-15T22:50:06.809Z,16.98
2023-05-15T22:52:34.893Z,17.23
2023-05-15T22:55:01.484Z,10.95
2023-05-15T22:57:28.494Z,9.63
2023-05-15T23:02:23.606Z,8.65
2023-05-15T23:04:50.237Z,8.50
2023-05-15T23:07:16.788Z,8.27
2023-05-15T23:09:44.171Z,7.82
2023-05-15T23:12:11.260Z,9.25
2023-05-15T23:14:38.276Z,8.23
2023-05-15T23:17:05.380Z,8.05
2023-05-15T23:22:03.340Z,11.15
2023-05-15T23:24:31.432Z,10.95
2023-05-15T23:26:58.343Z,8.30
2023-05-15T23:31:51.526Z,10.68
2023-05-15T23:34:18.162Z,10.23
2023-05-15T23:36:45.570Z,10.05
2023-05-15T23:39:12.010Z,10.07
2023-05-15T23:41:38.496Z,11.13
2023-05-15T23:44:05.036Z,8.57
2023-05-15T23:46:32.129Z,10.13
2023-05-15T23:48:58.599Z,9.48
2023-05-15T23:51:25.534Z,10.48
2023-05-15T23:53:52.503Z,10.88
2023-05-15T23:59:06.859Z,11.13
